createdAt,value
2016-08-17T00:00:23.794Z,0
2016-08-17T00:01:23.823Z,0
2016-08-17T00:02:23.142Z,0
2016-08-17T00:03:24.593Z,0
2016-08-17T00:04:24.637Z,0
2016-08-17T00:05:24.635Z,0
2016-08-17T00:06:23.960Z,0
2016-08-17T00:07:22.565Z,0
2016-08-17T00:08:38.911Z,0
2016-08-17T00:09:24.775Z,0
2016-08-17T00:10:24.791Z,0
2016-08-17T00:11:23.404Z,0
2016-08-17T00:12:24.175Z,0
2016-08-17T00:13:24.150Z,0
2016-08-17T00:14:39.073Z,0
2016-08-17T00:15:25.643Z,0
2016-08-17T00:16:23.531Z,0
2016-08-17T00:17:24.278Z,0
2016-08-17T00:18:25.004Z,0
2016-08-17T00:19:25.040Z,0
2016-08-17T00:20:24.386Z,0
2016-08-17T00:21:24.374Z,0
2016-08-17T00:22:23.692Z,0
2016-08-17T00:23:24.441Z,0
2016-08-17T00:24:24.468Z,0
2016-08-17T00:25:24.510Z,0
2016-08-17T00:26:23.802Z,0
2016-08-17T00:27:23.836Z,0
2016-08-17T00:28:26.003Z,0
2016-08-17T00:29:24.603Z,0
2016-08-17T00:30:23.920Z,0
2016-08-17T00:31:25.366Z,0
2016-08-17T00:32:23.974Z,0
2016-08-17T00:33:25.428Z,0
2016-08-17T00:34:24.743Z,0
2016-08-17T00:35:24.068Z,0
2016-08-17T00:36:25.519Z,0
2016-08-17T00:37:24.175Z,0
2016-08-17T00:38:25.568Z,0
2016-08-17T00:39:24.174Z,0
2016-08-17T00:40:25.651Z,0
2016-08-17T00:41:24.225Z,0
2016-08-17T00:42:24.254Z,0
2016-08-17T00:43:25.018Z,0
2016-08-17T00:44:25.756Z,0
2016-08-17T00:45:25.778Z,0
2016-08-17T00:46:25.079Z,0
2016-08-17T00:47:25.112Z,0
2016-08-17T00:48:25.138Z,0
2016-08-17T00:49:26.703Z,0
2016-08-17T00:50:25.899Z,0
2016-08-17T00:51:24.507Z,0
2016-08-17T00:52:24.541Z,0
2016-08-17T00:53:25.285Z,0
2016-08-17T00:54:25.299Z,0
2016-08-17T00:55:24.613Z,0
2016-08-17T00:56:25.354Z,0
2016-08-17T00:57:24.673Z,0
2016-08-17T00:58:25.429Z,0
2016-08-17T00:59:26.160Z,0
2016-08-17T01:00:26.183Z,0
2016-08-17T01:01:25.623Z,0
2016-08-17T01:02:24.831Z,0
2016-08-17T01:03:24.839Z,0
2016-08-17T01:04:25.581Z,0
2016-08-17T01:05:25.606Z,0
2016-08-17T01:06:24.925Z,0
2016-08-17T01:07:24.235Z,0
2016-08-17T01:08:25.687Z,0
2016-08-17T01:09:25.742Z,0
2016-08-17T01:10:25.750Z,0
2016-08-17T01:11:25.066Z,0
2016-08-17T01:12:26.524Z,0
2016-08-17T01:13:25.835Z,0
2016-08-17T01:14:25.853Z,0
2016-08-17T01:15:25.891Z,0
2016-08-17T01:16:25.222Z,0
2016-08-17T01:17:25.241Z,0
2016-08-17T01:18:25.971Z,0
2016-08-17T01:19:26.703Z,0
2016-08-17T01:20:26.732Z,0
2016-08-17T01:21:26.760Z,0
2016-08-17T01:22:25.365Z,0
2016-08-17T01:23:26.822Z,0
2016-08-17T01:24:26.222Z,0
2016-08-17T01:25:26.175Z,0
2016-08-17T01:26:26.186Z,0
2016-08-17T01:27:26.926Z,0
2016-08-17T01:28:25.526Z,0
2016-08-17T01:29:26.982Z,0
2016-08-17T01:30:24.877Z,0
2016-08-17T01:31:26.327Z,0
2016-08-17T01:32:24.943Z,0
2016-08-17T01:33:26.390Z,0
2016-08-17T01:34:24.987Z,0
2016-08-17T01:35:27.144Z,0
2016-08-17T01:36:27.176Z,0
2016-08-17T01:37:25.790Z,0
2016-08-17T01:38:25.804Z,0
2016-08-17T01:39:27.264Z,0
2016-08-17T01:40:26.586Z,0
2016-08-17T01:41:26.594Z,0
2016-08-17T01:42:26.638Z,0
2016-08-17T01:43:27.382Z,0
2016-08-17T01:44:26.683Z,0
2016-08-17T01:45:25.996Z,0
2016-08-17T01:46:27.467Z,0
2016-08-17T01:47:27.475Z,0
2016-08-17T01:48:25.376Z,0
2016-08-17T01:49:26.815Z,0
2016-08-17T01:50:27.558Z,0
2016-08-17T01:51:27.582Z,0
2016-08-17T01:52:27.612Z,0
2016-08-17T01:53:26.930Z,0
2016-08-17T01:54:27.684Z,0
2016-08-17T01:55:27.696Z,0
2016-08-17T01:56:27.021Z,0
2016-08-17T01:57:27.036Z,0
2016-08-17T01:58:28.502Z,0
2016-08-17T01:59:25.708Z,0
2016-08-17T02:00:27.825Z,0
2016-08-17T02:01:26.436Z,0
2016-08-17T02:02:27.181Z,0
2016-08-17T02:03:26.493Z,0
2016-08-17T02:04:27.946Z,0
2016-08-17T02:05:27.257Z,0
2016-08-17T02:06:26.586Z,0
2016-08-17T02:07:26.607Z,0
2016-08-17T02:08:26.633Z,0
2016-08-17T02:09:28.090Z,0
2016-08-17T02:10:27.397Z,0
2016-08-17T02:11:26.713Z,0
2016-08-17T02:12:28.169Z,0
2016-08-17T02:13:26.064Z,0
2016-08-17T02:14:26.804Z,0
2016-08-17T02:15:27.541Z,0
2016-08-17T02:16:26.135Z,0
2016-08-17T02:17:26.881Z,0
2016-08-17T02:18:26.904Z,0
2016-08-17T02:19:27.684Z,0
2016-08-17T02:20:28.379Z,0
2016-08-17T02:21:26.985Z,0
2016-08-17T02:22:27.015Z,0
2016-08-17T02:23:27.748Z,0
2016-08-17T02:24:27.794Z,0
2016-08-17T02:25:28.512Z,0
2016-08-17T02:26:27.831Z,0
2016-08-17T02:27:27.148Z,0
2016-08-17T02:28:26.466Z,0
2016-08-17T02:29:26.493Z,0
2016-08-17T02:30:27.937Z,0
2016-08-17T02:31:27.973Z,0
2016-08-17T02:32:27.304Z,0
2016-08-17T02:33:27.316Z,0
2016-08-17T02:34:27.345Z,0
2016-08-17T02:35:27.367Z,0
2016-08-17T02:36:29.531Z,0
2016-08-17T02:37:27.428Z,0
2016-08-17T02:38:27.453Z,0
2016-08-17T02:39:28.897Z,0
2016-08-17T02:40:28.931Z,0
2016-08-17T02:41:28.236Z,0
2016-08-17T02:42:28.269Z,0
2016-08-17T02:43:27.603Z,0
2016-08-17T02:44:27.637Z,0
2016-08-17T02:45:27.642Z,0
2016-08-17T02:46:26.952Z,0
2016-08-17T02:47:29.114Z,0
2016-08-17T02:48:28.434Z,0
2016-08-17T02:49:28.459Z,0
2016-08-17T02:50:27.779Z,0
2016-08-17T02:51:28.544Z,0
2016-08-17T02:52:29.251Z,0
2016-08-17T02:53:29.281Z,0
2016-08-17T02:54:28.611Z,0
2016-08-17T02:55:27.222Z,0
2016-08-17T02:56:27.953Z,0
2016-08-17T02:57:27.979Z,0
2016-08-17T02:58:29.418Z,0
2016-08-17T02:59:28.763Z,0
2016-08-17T03:00:28.782Z,0
2016-08-17T03:01:28.090Z,0
2016-08-17T03:02:28.824Z,0
2016-08-17T03:03:31.161Z,0
2016-08-17T03:04:28.156Z,0
2016-08-17T03:05:28.894Z,0
2016-08-17T03:06:28.924Z,0
2016-08-17T03:07:28.244Z,0
2016-08-17T03:08:28.277Z,0
2016-08-17T03:09:28.295Z,0
2016-08-17T03:10:29.752Z,0
2016-08-17T03:11:29.068Z,0
2016-08-17T03:12:29.082Z,0
2016-08-17T03:13:29.110Z,0
2016-08-17T03:14:29.134Z,0
2016-08-17T03:15:28.470Z,0
2016-08-17T03:16:29.213Z,0
2016-08-17T03:17:29.225Z,0
2016-08-17T03:18:29.245Z,0
2016-08-17T03:19:29.980Z,0
2016-08-17T03:20:29.303Z,0
2016-08-17T03:21:27.912Z,0
2016-08-17T03:22:29.355Z,0
2016-08-17T03:23:29.416Z,0
2016-08-17T03:24:29.431Z,0
2016-08-17T03:25:29.452Z,0
2016-08-17T03:26:30.883Z,0
2016-08-17T03:27:29.489Z,0
2016-08-17T03:28:29.516Z,0
2016-08-17T03:29:29.542Z,0
2016-08-17T03:30:30.287Z,0
2016-08-17T03:31:28.182Z,0
2016-08-17T03:32:29.648Z,0
2016-08-17T03:33:29.651Z,0
2016-08-17T03:34:30.392Z,0
2016-08-17T03:35:29.705Z,0
2016-08-17T03:36:29.743Z,0
2016-08-17T03:37:29.781Z,0
2016-08-17T03:38:28.365Z,0
2016-08-17T03:39:28.458Z,0
2016-08-17T03:40:30.573Z,0
2016-08-17T03:41:29.871Z,0
2016-08-17T03:42:30.604Z,0
2016-08-17T03:43:30.638Z,0
2016-08-17T03:44:29.259Z,0
2016-08-17T03:45:30.676Z,0
2016-08-17T03:46:30.718Z,0
2016-08-17T03:47:31.468Z,0
2016-08-17T03:48:30.081Z,0
2016-08-17T03:49:30.084Z,0
2016-08-17T03:50:29.406Z,0
2016-08-17T03:51:29.425Z,0
2016-08-17T03:52:29.453Z,0
2016-08-17T03:53:30.190Z,0
2016-08-17T03:54:29.516Z,0
2016-08-17T03:55:29.533Z,0
2016-08-17T03:56:30.986Z,0
2016-08-17T03:57:30.301Z,0
2016-08-17T03:58:30.326Z,0
2016-08-17T03:59:29.643Z,0
2016-08-17T04:00:31.086Z,0
2016-08-17T04:01:29.698Z,0
2016-08-17T04:02:31.153Z,0
2016-08-17T04:03:31.173Z,0
2016-08-17T04:04:29.784Z,0
2016-08-17T04:05:31.216Z,0
2016-08-17T04:06:29.829Z,0
2016-08-17T04:07:30.565Z,0
2016-08-17T04:08:30.592Z,0
2016-08-17T04:09:29.211Z,0
2016-08-17T04:10:30.642Z,0
2016-08-17T04:11:29.963Z,0
2016-08-17T04:12:30.707Z,0
2016-08-17T04:13:30.013Z,0
2016-08-17T04:14:31.465Z,0
2016-08-17T04:15:31.495Z,0
2016-08-17T04:16:30.088Z,0
2016-08-17T04:17:30.121Z,0
2016-08-17T04:18:30.170Z,0
2016-08-17T04:19:30.911Z,0
2016-08-17T04:20:30.207Z,0
2016-08-17T04:21:30.927Z,0
2016-08-17T04:22:30.963Z,0
2016-08-17T04:23:30.285Z,0
2016-08-17T04:24:31.025Z,0
2016-08-17T04:25:29.622Z,0
2016-08-17T04:26:31.088Z,0
2016-08-17T04:27:31.098Z,0
2016-08-17T04:28:31.170Z,0
2016-08-17T04:29:30.478Z,0
2016-08-17T04:30:30.466Z,0
2016-08-17T04:31:29.783Z,0
2016-08-17T04:32:30.525Z,0
2016-08-17T04:33:31.256Z,0
2016-08-17T04:34:30.578Z,0
2016-08-17T04:35:30.598Z,0
2016-08-17T04:36:31.357Z,0
2016-08-17T04:37:29.939Z,0
2016-08-17T04:38:32.830Z,0
2016-08-17T04:39:31.417Z,0
2016-08-17T04:40:30.727Z,0
2016-08-17T04:41:30.051Z,0
2016-08-17T04:42:30.778Z,0
2016-08-17T04:43:32.230Z,0
2016-08-17T04:44:31.598Z,0
2016-08-17T04:45:31.576Z,0
2016-08-17T04:46:30.178Z,0
2016-08-17T04:47:31.623Z,0
2016-08-17T04:48:30.946Z,0
2016-08-17T04:49:31.680Z,0
2016-08-17T04:50:32.423Z,0
2016-08-17T04:51:31.023Z,0
2016-08-17T04:52:31.770Z,0
2016-08-17T04:53:30.376Z,0
2016-08-17T04:54:33.246Z,0
2016-08-17T04:55:32.544Z,0
2016-08-17T04:56:31.153Z,0
2016-08-17T04:57:31.180Z,0
2016-08-17T04:58:30.497Z,0
2016-08-17T04:59:31.233Z,0
2016-08-17T05:00:31.258Z,0
2016-08-17T05:01:32.710Z,0
2016-08-17T05:02:32.016Z,0
2016-08-17T05:03:32.762Z,0
2016-08-17T05:04:31.366Z,0
2016-08-17T05:05:31.392Z,0
2016-08-17T05:06:32.129Z,0
2016-08-17T05:07:31.441Z,0
2016-08-17T05:08:32.892Z,0
2016-08-17T05:09:32.270Z,0
2016-08-17T05:10:31.527Z,0
2016-08-17T05:11:32.276Z,0
2016-08-17T05:12:33.001Z,0
2016-08-17T05:13:31.605Z,0
2016-08-17T05:14:31.627Z,0
2016-08-17T05:15:32.387Z,0
2016-08-17T05:16:32.405Z,0
2016-08-17T05:17:31.710Z,0
2016-08-17T05:18:31.737Z,0
2016-08-17T05:19:33.178Z,0
2016-08-17T05:20:31.793Z,0
2016-08-17T05:21:32.528Z,0
2016-08-17T05:22:34.029Z,0
2016-08-17T05:23:31.867Z,0
2016-08-17T05:24:31.908Z,0
2016-08-17T05:25:32.630Z,0
2016-08-17T05:26:32.713Z,0
2016-08-17T05:27:31.984Z,0
2016-08-17T05:28:32.707Z,0
2016-08-17T05:29:33.445Z,0
2016-08-17T05:30:32.052Z,0
2016-08-17T05:31:32.788Z,0
2016-08-17T05:32:31.388Z,0
2016-08-17T05:33:32.136Z,0
2016-08-17T05:34:32.866Z,0
2016-08-17T05:35:32.896Z,0
2016-08-17T05:36:32.209Z,0
2016-08-17T05:37:32.226Z,0
2016-08-17T05:38:32.273Z,0
2016-08-17T05:39:33.000Z,0
2016-08-17T05:40:33.754Z,0
2016-08-17T05:41:33.050Z,0
2016-08-17T05:42:32.365Z,0
2016-08-17T05:43:33.815Z,0
2016-08-17T05:44:32.419Z,0
2016-08-17T05:45:32.447Z,0
2016-08-17T05:46:33.181Z,0
2016-08-17T05:47:33.203Z,0
2016-08-17T05:48:33.272Z,0
2016-08-17T05:49:33.266Z,0
2016-08-17T05:50:34.720Z,0
2016-08-17T05:51:32.605Z,0
2016-08-17T05:52:33.350Z,0
2016-08-17T05:53:33.368Z,0
2016-08-17T05:54:31.976Z,0
2016-08-17T05:55:34.849Z,0
2016-08-17T05:56:33.458Z,0
2016-08-17T05:57:34.182Z,0
2016-08-17T05:58:33.503Z,0
2016-08-17T05:59:33.522Z,0
2016-08-17T06:00:32.127Z,0
2016-08-17T06:01:33.587Z,0
2016-08-17T06:02:32.195Z,0
2016-08-17T06:03:34.344Z,0
2016-08-17T06:04:32.980Z,0
2016-08-17T06:05:32.973Z,0
2016-08-17T06:06:33.008Z,0
2016-08-17T06:07:33.041Z,0
2016-08-17T06:08:33.763Z,0
2016-08-17T06:09:33.789Z,0
2016-08-17T06:10:33.816Z,0
2016-08-17T06:11:34.549Z,0
2016-08-17T06:12:33.187Z,0
2016-08-17T06:13:33.919Z,0
2016-08-17T06:14:34.642Z,0
2016-08-17T06:15:32.531Z,0
2016-08-17T06:16:34.684Z,0
2016-08-17T06:17:33.302Z,0
2016-08-17T06:18:33.330Z,0
2016-08-17T06:19:34.762Z,0
2016-08-17T06:20:34.081Z,0
2016-08-17T06:21:34.110Z,0
2016-08-17T06:22:35.555Z,0
2016-08-17T06:23:34.170Z,0
2016-08-17T06:24:34.190Z,0
2016-08-17T06:25:34.938Z,0
2016-08-17T06:26:34.245Z,0
2016-08-17T06:27:34.978Z,0
2016-08-17T06:28:33.583Z,0
2016-08-17T06:29:33.643Z,0
2016-08-17T06:30:34.354Z,0
2016-08-17T06:31:35.815Z,0
2016-08-17T06:32:34.397Z,0
2016-08-17T06:33:33.005Z,0
2016-08-17T06:34:35.177Z,0
2016-08-17T06:35:33.773Z,0
2016-08-17T06:36:34.516Z,0
2016-08-17T06:37:34.529Z,0
2016-08-17T06:38:35.971Z,0
2016-08-17T06:39:33.873Z,0
2016-08-17T06:40:34.609Z,0
2016-08-17T06:41:34.651Z,0
2016-08-17T06:42:33.957Z,0
2016-08-17T06:43:34.697Z,0
2016-08-17T06:44:34.008Z,0
2016-08-17T06:45:34.038Z,0
2016-08-17T06:46:34.061Z,0
2016-08-17T06:47:34.798Z,0
2016-08-17T06:48:33.410Z,0
2016-08-17T06:49:33.431Z,0
2016-08-17T06:50:34.181Z,0
2016-08-17T06:51:34.914Z,5
2016-08-17T06:52:35.642Z,5
2016-08-17T06:53:34.259Z,5
2016-08-17T06:54:34.983Z,5
2016-08-17T06:55:35.011Z,5
2016-08-17T06:56:34.329Z,5
2016-08-17T06:57:34.350Z,5
2016-08-17T06:58:35.114Z,5
2016-08-17T06:59:33.706Z,5
2016-08-17T07:00:34.434Z,5
2016-08-17T07:01:35.179Z,5
2016-08-17T07:02:35.199Z,5
2016-08-17T07:03:35.217Z,5
2016-08-17T07:04:35.251Z,5
2016-08-17T07:05:34.571Z,5
2016-08-17T07:06:34.594Z,0
2016-08-17T07:07:33.923Z,5
2016-08-17T07:08:34.663Z,5
2016-08-17T07:09:34.676Z,5
2016-08-17T07:10:35.430Z,5
2016-08-17T07:11:36.148Z,10
2016-08-17T07:12:34.047Z,5
2016-08-17T07:13:34.782Z,5
2016-08-17T07:14:36.259Z,5
2016-08-17T07:15:35.565Z,5
2016-08-17T07:16:36.280Z,10
2016-08-17T07:17:34.892Z,10
2016-08-17T07:18:36.345Z,5
2016-08-17T07:19:34.941Z,10
2016-08-17T07:20:37.116Z,10
2016-08-17T07:21:35.714Z,5
2016-08-17T07:22:36.450Z,5
2016-08-17T07:23:35.063Z,5
2016-08-17T07:24:36.505Z,5
2016-08-17T07:25:35.826Z,5
2016-08-17T07:26:35.842Z,10
2016-08-17T07:27:34.461Z,5
2016-08-17T07:28:35.188Z,5
2016-08-17T07:29:35.219Z,5
2016-08-17T07:30:35.239Z,5
2016-08-17T07:31:36.698Z,5
2016-08-17T07:32:36.720Z,5
2016-08-17T07:33:35.325Z,5
2016-08-17T07:34:36.089Z,5
2016-08-17T07:35:35.376Z,5
2016-08-17T07:36:35.461Z,5
2016-08-17T07:37:36.142Z,5
2016-08-17T07:38:36.196Z,5
2016-08-17T07:39:36.215Z,5
2016-08-17T07:40:36.229Z,5
2016-08-17T07:41:35.543Z,5
2016-08-17T07:42:36.281Z,5
2016-08-17T07:43:35.602Z,5
2016-08-17T07:44:34.927Z,5
2016-08-17T07:45:37.082Z,5
2016-08-17T07:46:35.688Z,10
2016-08-17T07:47:36.431Z,10
2016-08-17T07:48:35.732Z,10
2016-08-17T07:49:37.204Z,10
2016-08-17T07:50:35.105Z,10
2016-08-17T07:51:35.830Z,10
2016-08-17T07:52:36.566Z,10
2016-08-17T07:53:36.593Z,10
2016-08-17T07:54:36.614Z,10
2016-08-17T07:55:36.648Z,10
2016-08-17T07:56:36.667Z,10
2016-08-17T07:57:35.980Z,10
2016-08-17T07:58:37.436Z,10
2016-08-17T07:59:36.034Z,10
2016-08-17T08:00:36.773Z,10
2016-08-17T08:01:36.103Z,10
2016-08-17T08:02:36.167Z,5
2016-08-17T08:03:36.871Z,5
2016-08-17T08:04:36.892Z,5
2016-08-17T08:05:38.331Z,5
2016-08-17T08:06:36.231Z,10
2016-08-17T08:07:37.676Z,10
2016-08-17T08:08:37.714Z,10
2016-08-17T08:09:37.735Z,15
2016-08-17T08:10:36.344Z,15
2016-08-17T08:11:37.780Z,15
2016-08-17T08:12:36.401Z,20
2016-08-17T08:13:37.135Z,15
2016-08-17T08:14:37.873Z,15
2016-08-17T08:15:37.185Z,20
2016-08-17T08:16:37.930Z,10
2016-08-17T08:17:37.995Z,15
2016-08-17T08:18:36.559Z,10
2016-08-17T08:19:36.593Z,10
2016-08-17T08:20:38.036Z,5
2016-08-17T08:21:36.665Z,5
2016-08-17T08:22:37.388Z,15
2016-08-17T08:23:37.415Z,10
2016-08-17T08:24:37.432Z,10
2016-08-17T08:25:37.465Z,10
2016-08-17T08:26:38.354Z,10
2016-08-17T08:27:38.227Z,10
2016-08-17T08:28:37.551Z,10
2016-08-17T08:29:37.590Z,10
2016-08-17T08:30:38.310Z,15
2016-08-17T08:31:37.633Z,20
2016-08-17T08:32:37.670Z,20
2016-08-17T08:33:36.983Z,15
2016-08-17T08:34:38.424Z,15
2016-08-17T08:35:37.035Z,20
2016-08-17T08:36:36.401Z,20
2016-08-17T08:37:38.512Z,15
2016-08-17T08:38:37.126Z,20
2016-08-17T08:39:37.147Z,20
2016-08-17T08:40:37.904Z,20
2016-08-17T08:41:38.646Z,20
2016-08-17T08:42:37.226Z,20
2016-08-17T08:43:36.548Z,20
2016-08-17T08:44:37.309Z,20
2016-08-17T08:45:38.731Z,20
2016-08-17T08:46:38.059Z,15
2016-08-17T08:47:36.671Z,15
2016-08-17T08:48:38.113Z,15
2016-08-17T08:49:38.162Z,10
2016-08-17T08:50:37.460Z,20
2016-08-17T08:51:37.489Z,15
2016-08-17T08:52:36.809Z,10
2016-08-17T08:53:38.254Z,10
2016-08-17T08:54:37.572Z,10
2016-08-17T08:55:38.324Z,10
2016-08-17T08:56:37.631Z,5
2016-08-17T08:57:38.365Z,5
2016-08-17T08:58:39.099Z,10
2016-08-17T08:59:37.720Z,10
2016-08-17T09:00:37.044Z,10
2016-08-17T09:01:39.191Z,10
2016-08-17T09:02:38.516Z,10
2016-08-17T09:03:38.537Z,10
2016-08-17T09:04:38.580Z,10
2016-08-17T09:05:39.395Z,25
2016-08-17T09:06:38.620Z,20
2016-08-17T09:07:39.412Z,20
2016-08-17T09:08:38.690Z,15
2016-08-17T09:09:38.744Z,10
2016-08-17T09:10:38.743Z,10
2016-08-17T09:11:38.771Z,10
2016-08-17T09:12:37.382Z,20
2016-08-17T09:13:38.116Z,15
2016-08-17T09:14:39.605Z,25
2016-08-17T09:15:38.892Z,15
2016-08-17T09:16:39.620Z,20
2016-08-17T09:17:39.665Z,30
2016-08-17T09:18:38.968Z,25
2016-08-17T09:19:39.723Z,35
2016-08-17T09:20:37.613Z,25
2016-08-17T09:21:39.053Z,20
2016-08-17T09:22:39.097Z,20
2016-08-17T09:23:39.821Z,20
2016-08-17T09:24:38.450Z,20
2016-08-17T09:25:37.746Z,10
2016-08-17T09:26:39.200Z,10
2016-08-17T09:27:39.231Z,10
2016-08-17T09:28:39.256Z,10
2016-08-17T09:29:38.585Z,10
2016-08-17T09:30:40.039Z,10
2016-08-17T09:31:39.342Z,10
2016-08-17T09:32:40.087Z,15
2016-08-17T09:33:38.701Z,25
2016-08-17T09:34:39.433Z,20
2016-08-17T09:35:38.748Z,10
2016-08-17T09:36:38.805Z,20
2016-08-17T09:37:39.514Z,20
2016-08-17T09:38:38.841Z,20
2016-08-17T09:39:39.575Z,25
2016-08-17T09:40:40.333Z,20
2016-08-17T09:41:39.632Z,25
2016-08-17T09:42:38.993Z,20
2016-08-17T09:43:38.987Z,20
2016-08-17T09:44:39.013Z,20
2016-08-17T09:45:39.764Z,20
2016-08-17T09:46:39.790Z,20
2016-08-17T09:47:40.626Z,10
2016-08-17T09:48:39.846Z,20
2016-08-17T09:49:39.871Z,20
2016-08-17T09:50:39.195Z,15
2016-08-17T09:51:40.649Z,15
2016-08-17T09:52:39.252Z,20
2016-08-17T09:53:39.994Z,20
2016-08-17T09:54:38.598Z,10
2016-08-17T09:55:38.622Z,20
2016-08-17T09:56:39.368Z,20
2016-08-17T09:57:39.432Z,10
2016-08-17T09:58:40.854Z,10
2016-08-17T09:59:39.457Z,15
2016-08-17T10:00:40.906Z,20
2016-08-17T10:01:40.227Z,20
2016-08-17T10:02:40.981Z,20
2016-08-17T10:03:40.284Z,20
2016-08-17T10:04:40.344Z,20
2016-08-17T10:05:38.931Z,20
2016-08-17T10:06:40.381Z,25
2016-08-17T10:07:41.828Z,25
2016-08-17T10:08:41.158Z,15
2016-08-17T10:09:40.464Z,15
2016-08-17T10:10:39.781Z,15
2016-08-17T10:11:40.519Z,15
2016-08-17T10:12:41.981Z,20
2016-08-17T10:13:40.593Z,20
2016-08-17T10:14:39.935Z,20
2016-08-17T10:15:39.940Z,20
2016-08-17T10:16:39.970Z,10
2016-08-17T10:17:39.285Z,20
2016-08-17T10:18:42.155Z,20
2016-08-17T10:19:41.491Z,20
2016-08-17T10:20:40.088Z,20
2016-08-17T10:21:40.855Z,15
2016-08-17T10:22:41.568Z,20
2016-08-17T10:23:40.884Z,20
2016-08-17T10:24:42.350Z,20
2016-08-17T10:25:40.953Z,20
2016-08-17T10:26:40.980Z,20
2016-08-17T10:27:41.720Z,20
2016-08-17T10:28:39.622Z,20
2016-08-17T10:29:41.786Z,25
2016-08-17T10:30:39.673Z,25
2016-08-17T10:31:41.158Z,20
2016-08-17T10:32:40.467Z,15
2016-08-17T10:33:41.183Z,15
2016-08-17T10:34:41.228Z,10
2016-08-17T10:35:41.985Z,10
2016-08-17T10:36:41.282Z,15
2016-08-17T10:37:41.315Z,15
2016-08-17T10:38:40.649Z,20
2016-08-17T10:39:42.089Z,25
2016-08-17T10:40:42.118Z,25
2016-08-17T10:41:41.428Z,25
2016-08-17T10:42:41.466Z,20
2016-08-17T10:43:42.928Z,20
2016-08-17T10:44:40.814Z,20
2016-08-17T10:45:40.852Z,20
2016-08-17T10:46:42.307Z,20
2016-08-17T10:47:42.328Z,15
2016-08-17T10:48:41.645Z,10
2016-08-17T10:49:40.974Z,20
2016-08-17T10:50:40.299Z,15
2016-08-17T10:51:41.028Z,15
2016-08-17T10:52:40.352Z,20
2016-08-17T10:53:41.089Z,20
2016-08-17T10:54:42.568Z,20
2016-08-17T10:55:42.577Z,20
2016-08-17T10:56:42.613Z,20
2016-08-17T10:57:41.213Z,20
2016-08-17T10:58:41.270Z,15
2016-08-17T10:59:41.278Z,10
2016-08-17T11:00:42.020Z,10
2016-08-17T11:01:42.760Z,10
2016-08-17T11:02:42.090Z,20
2016-08-17T11:03:42.115Z,20
2016-08-17T11:04:41.453Z,20
2016-08-17T11:05:41.485Z,10
2016-08-17T11:06:42.216Z,10
2016-08-17T11:07:42.226Z,10
2016-08-17T11:08:41.569Z,5
2016-08-17T11:09:42.304Z,5
2016-08-17T11:10:41.614Z,5
2016-08-17T11:11:41.662Z,5
2016-08-17T11:12:41.689Z,5
2016-08-17T11:13:40.998Z,15
2016-08-17T11:14:42.452Z,5
2016-08-17T11:15:42.476Z,5
2016-08-17T11:16:41.802Z,5
2016-08-17T11:17:42.542Z,5
2016-08-17T11:18:41.152Z,10
2016-08-17T11:19:42.618Z,5
2016-08-17T11:20:41.942Z,5
2016-08-17T11:21:41.977Z,5
2016-08-17T11:22:42.692Z,5
2016-08-17T11:23:43.435Z,5
2016-08-17T11:24:42.771Z,15
2016-08-17T11:25:41.370Z,15
2016-08-17T11:26:43.531Z,15
2016-08-17T11:27:43.581Z,15
2016-08-17T11:28:43.585Z,15
2016-08-17T11:29:42.210Z,15
2016-08-17T11:30:42.231Z,15
2016-08-17T11:31:42.261Z,15
2016-08-17T11:32:43.017Z,15
2016-08-17T11:33:43.034Z,15
2016-08-17T11:34:42.365Z,15
2016-08-17T11:35:43.110Z,15
2016-08-17T11:36:42.416Z,15
2016-08-17T11:37:43.152Z,15
2016-08-17T11:38:43.200Z,15
2016-08-17T11:39:43.222Z,15
2016-08-17T11:40:43.967Z,15
2016-08-17T11:41:42.570Z,15
2016-08-17T11:42:43.318Z,15
2016-08-17T11:43:44.052Z,15
2016-08-17T11:44:44.106Z,15
2016-08-17T11:45:43.416Z,15
2016-08-17T11:46:43.444Z,15
2016-08-17T11:47:42.038Z,20
2016-08-17T11:48:44.208Z,20
2016-08-17T11:49:42.825Z,20
2016-08-17T11:50:42.860Z,20
2016-08-17T11:51:44.303Z,20
2016-08-17T11:52:44.332Z,15
2016-08-17T11:53:42.234Z,20
2016-08-17T11:54:43.684Z,20
2016-08-17T11:55:45.154Z,20
2016-08-17T11:56:43.053Z,20
2016-08-17T11:57:43.063Z,20
2016-08-17T11:58:43.805Z,20
2016-08-17T11:59:43.841Z,20
2016-08-17T12:00:45.305Z,20
2016-08-17T12:01:44.611Z,20
2016-08-17T12:02:44.648Z,15
2016-08-17T12:03:43.254Z,15
2016-08-17T12:04:43.993Z,15
2016-08-17T12:05:43.315Z,15
2016-08-17T12:06:43.345Z,15
2016-08-17T12:07:43.382Z,15
2016-08-17T12:08:44.839Z,15
2016-08-17T12:09:43.443Z,15
2016-08-17T12:10:44.221Z,15
2016-08-17T12:11:44.932Z,15
2016-08-17T12:12:44.253Z,15
2016-08-17T12:13:42.851Z,15
2016-08-17T12:14:44.309Z,15
2016-08-17T12:15:44.352Z,15
2016-08-17T12:16:44.381Z,15
2016-08-17T12:17:44.439Z,15
2016-08-17T12:18:45.147Z,15
2016-08-17T12:19:45.191Z,15
2016-08-17T12:20:44.515Z,5
2016-08-17T12:21:44.532Z,5
2016-08-17T12:22:44.571Z,5
2016-08-17T12:23:43.884Z,5
2016-08-17T12:24:43.216Z,10
2016-08-17T12:25:43.950Z,15
2016-08-17T12:26:43.276Z,5
2016-08-17T12:27:44.723Z,5
2016-08-17T12:28:44.044Z,0
2016-08-17T12:29:44.810Z,0
2016-08-17T12:30:44.818Z,5
2016-08-17T12:31:44.854Z,5
2016-08-17T12:32:44.176Z,10
2016-08-17T12:33:45.631Z,15
2016-08-17T12:34:44.238Z,15
2016-08-17T12:35:46.394Z,15
2016-08-17T12:36:44.295Z,15
2016-08-17T12:37:45.756Z,5
2016-08-17T12:38:46.492Z,5
2016-08-17T12:39:45.101Z,5
2016-08-17T12:40:45.846Z,15
2016-08-17T12:41:44.455Z,15
2016-08-17T12:42:45.922Z,15
2016-08-17T12:43:46.647Z,15
2016-08-17T12:44:45.253Z,15
2016-08-17T12:45:45.292Z,15
2016-08-17T12:46:44.611Z,15
2016-08-17T12:47:46.361Z,15
2016-08-17T12:48:44.678Z,15
2016-08-17T12:49:45.441Z,15
2016-08-17T12:50:45.471Z,15
2016-08-17T12:51:45.483Z,15
2016-08-17T12:52:45.517Z,15
2016-08-17T12:53:46.247Z,15
2016-08-17T12:54:45.580Z,15
2016-08-17T12:55:45.599Z,15
2016-08-17T12:56:44.924Z,15
2016-08-17T12:57:46.385Z,10
2016-08-17T12:58:46.429Z,15
2016-08-17T12:59:44.313Z,15
2016-08-17T13:00:47.181Z,15
2016-08-17T13:01:45.796Z,15
2016-08-17T13:02:45.835Z,15
2016-08-17T13:03:45.898Z,15
2016-08-17T13:04:46.625Z,15
2016-08-17T13:05:46.643Z,15
2016-08-17T13:06:45.234Z,15
2016-08-17T13:07:45.992Z,15
2016-08-17T13:08:47.437Z,15
2016-08-17T13:09:44.632Z,15
2016-08-17T13:10:46.795Z,15
2016-08-17T13:11:46.102Z,15
2016-08-17T13:12:45.431Z,15
2016-08-17T13:13:45.459Z,15
2016-08-17T13:14:46.939Z,15
2016-08-17T13:15:46.238Z,15
2016-08-17T13:16:46.273Z,0
2016-08-17T13:17:47.007Z,10
2016-08-17T13:18:46.343Z,15
2016-08-17T13:19:46.365Z,15
2016-08-17T13:20:46.396Z,15
2016-08-17T13:21:45.716Z,15
2016-08-17T13:22:46.469Z,15
2016-08-17T13:23:47.249Z,15
2016-08-17T13:24:47.309Z,15
2016-08-17T13:25:46.560Z,15
2016-08-17T13:26:47.293Z,15
2016-08-17T13:27:46.616Z,10
2016-08-17T13:28:47.381Z,10
2016-08-17T13:29:45.965Z,15
2016-08-17T13:30:46.008Z,10
2016-08-17T13:31:46.754Z,10
2016-08-17T13:32:46.772Z,10
2016-08-17T13:33:47.522Z,10
2016-08-17T13:34:46.856Z,10
2016-08-17T13:35:46.873Z,10
2016-08-17T13:36:46.956Z,10
2016-08-17T13:37:47.644Z,10
2016-08-17T13:38:46.975Z,10
2016-08-17T13:39:47.712Z,10
2016-08-17T13:40:47.038Z,10
2016-08-17T13:41:46.353Z,10
2016-08-17T13:42:45.692Z,10
2016-08-17T13:43:46.418Z,10
2016-08-17T13:44:47.867Z,10
2016-08-17T13:45:47.909Z,10
2016-08-17T13:46:47.221Z,10
2016-08-17T13:47:47.263Z,10
2016-08-17T13:48:46.574Z,10
2016-08-17T13:49:48.046Z,5
2016-08-17T13:50:45.928Z,0
2016-08-17T13:51:46.670Z,0
2016-08-17T13:52:48.115Z,10
2016-08-17T13:53:46.741Z,5
2016-08-17T13:54:46.764Z,10
2016-08-17T13:55:47.505Z,5
2016-08-17T13:56:46.839Z,10
2016-08-17T13:57:48.280Z,10
2016-08-17T13:58:46.181Z,10
2016-08-17T13:59:46.953Z,10
2016-08-17T14:00:46.956Z,10
2016-08-17T14:01:47.700Z,10
2016-08-17T14:02:48.444Z,10
2016-08-17T14:03:46.340Z,10
2016-08-17T14:04:48.507Z,10
2016-08-17T14:05:48.549Z,0
2016-08-17T14:06:47.153Z,0
2016-08-17T14:07:47.890Z,0
2016-08-17T14:08:47.209Z,0
2016-08-17T14:09:47.244Z,10
2016-08-17T14:10:46.566Z,10
2016-08-17T14:11:48.023Z,10
2016-08-17T14:12:48.066Z,10
2016-08-17T14:13:48.083Z,10
2016-08-17T14:14:48.823Z,10
2016-08-17T14:15:47.445Z,10
2016-08-17T14:16:48.881Z,10
2016-08-17T14:17:48.211Z,10
2016-08-17T14:18:48.955Z,10
2016-08-17T14:19:47.560Z,10
2016-08-17T14:20:49.016Z,0
2016-08-17T14:21:48.541Z,10
2016-08-17T14:22:48.377Z,10
2016-08-17T14:23:46.976Z,10
2016-08-17T14:24:47.020Z,10
2016-08-17T14:25:48.464Z,10
2016-08-17T14:26:49.203Z,10
2016-08-17T14:27:48.527Z,10
2016-08-17T14:28:49.272Z,10
2016-08-17T14:29:47.164Z,10
2016-08-17T14:30:47.222Z,10
2016-08-17T14:31:49.362Z,10
2016-08-17T14:32:48.683Z,10
2016-08-17T14:33:48.028Z,10